Time;durP1;ratioP1;P1;durP2;ratioP2;P2;SDS_P1;SDS_P2;PMS_P1;PMS_P2;Temp;Humidity;BMP_temperature;BMP_pressure;BME280_temperature;BME280_humidity;BME280_pressure;Samples;Min_cycle;Max_cycle;Signal;HPM_P1;HPM_P2
2021/10/05 00:02:04;;;;;;;2.40;1.40;;;23.60;56.60;;;;;;6240157;23;20147;-85
2021/10/05 00:04:33;;;;;;;1.50;1.37;;;23.70;56.70;;;;;;6240695;23;20154;-86
2021/10/05 00:07:02;;;;;;;1.87;1.53;;;23.60;56.60;;;;;;6240561;23;20377;-83
2021/10/05 00:09:28;;;;;;;2.90;1.40;;;23.60;56.60;;;;;;6266963;23;20365;-84
2021/10/05 00:11:57;;;;;;;1.90;1.43;;;23.60;56.60;;;;;;6267396;23;20404;-83
2021/10/05 00:14:23;;;;;;;1.63;1.53;;;23.60;56.60;;;;;;6215571;23;20182;-83
2021/10/05 00:16:55;;;;;;;1.43;1.07;;;23.60;56.60;;;;;;6215870;23;20381;-83
2021/10/05 00:19:22;;;;;;;1.70;1.60;;;23.60;56.60;;;;;;6215792;23;20393;-83
2021/10/05 00:21:49;;;;;;;1.87;1.30;;;23.60;56.60;;;;;;6213930;23;20377;-84
2021/10/05 00:24:15;;;;;;;2.40;1.40;;;23.60;56.60;;;;;;6240334;23;20401;-84
2021/10/05 00:26:41;;;;;;;3.57;1.70;;;23.60;56.60;;;;;;6266577;23;20368;-83
2021/10/05 00:29:08;;;;;;;1.47;1.00;;;23.60;56.70;;;;;;6241789;23;20373;-83
2021/10/05 00:31:34;;;;;;;1.50;1.40;;;23.60;56.60;;;;;;6267212;23;20173;-83
2021/10/05 00:34:00;;;;;;;1.40;1.20;;;23.50;56.60;;;;;;6239994;23;20472;-84
2021/10/05 00:36:26;;;;;;;1.50;1.10;;;23.50;56.60;;;;;;6240232;23;20380;-84
2021/10/05 00:38:52;;;;;;;1.77;1.20;;;23.60;56.60;;;;;;6240299;23;20150;-83
2021/10/05 00:41:21;;;;;;;1.40;1.30;;;23.50;56.60;;;;;;6189920;23;20389;-83
2021/10/05 00:43:48;;;;;;;1.23;1.00;;;23.50;56.60;;;;;;6239674;23;20400;-83
2021/10/05 00:46:15;;;;;;;1.80;1.37;;;23.50;56.60;;;;;;6240500;23;20391;-83
2021/10/05 00:48:41;;;;;;;1.53;1.17;;;23.50;56.60;;;;;;6214809;23;20385;-83
2021/10/05 00:51:08;;;;;;;1.60;1.40;;;23.50;56.60;;;;;;6240139;23;20388;-83
2021/10/05 00:53:37;;;;;;;1.87;1.20;;;23.50;56.60;;;;;;6239861;23;20408;-83
2021/10/05 00:56:03;;;;;;;1.47;1.27;;;23.50;56.60;;;;;;6239972;23;20373;-84
2021/10/05 00:58:31;;;;;;;1.63;1.43;;;23.50;56.60;;;;;;6239708;23;20441;-84
2021/10/05 01:00:57;;;;;;;1.77;1.40;;;23.50;56.60;;;;;;6239217;23;20382;-83
2021/10/05 01:03:26;;;;;;;1.70;1.27;;;23.50;56.60;;;;;;6239848;23;20384;-83
2021/10/05 01:05:51;;;;;;;1.50;1.17;;;23.50;56.60;;;;;;6239737;23;20150;-83
2021/10/05 01:08:21;;;;;;;1.70;1.10;;;23.50;56.60;;;;;;6214507;23;20378;-83
2021/10/05 01:10:47;;;;;;;1.60;1.50;;;23.50;56.60;;;;;;6239324;23;20608;-83
2021/10/05 01:13:12;;;;;;;1.40;1.10;;;23.50;56.60;;;;;;6239496;23;20378;-84
2021/10/05 01:15:41;;;;;;;1.40;1.20;;;23.50;56.60;;;;;;6265716;23;20474;-84
2021/10/05 01:18:07;;;;;;;1.50;1.13;;;23.50;56.60;;;;;;6239082;23;20169;-84
2021/10/05 01:20:57;;;;;;;1.47;1.27;;;23.50;56.60;;;;;;6265987;23;20369;-83
2021/10/05 01:23:27;;;;;;;1.30;1.10;;;23.50;56.60;;;;;;6265355;23;20385;-83
2021/10/05 01:25:53;;;;;;;2.47;1.60;;;23.40;56.60;;;;;;6266094;23;20433;-84
2021/10/05 01:28:21;;;;;;;1.60;1.20;;;23.40;56.60;;;;;;6238529;23;20408;-83
2021/10/05 01:30:51;;;;;;;1.57;1.00;;;23.40;56.60;;;;;;6265196;23;20365;-83
2021/10/05 01:33:19;;;;;;;1.70;1.17;;;23.40;56.50;;;;;;6239933;23;20433;-84
2021/10/05 01:35:45;;;;;;;1.33;1.17;;;23.40;56.60;;;;;;6239027;23;20421;-83
2021/10/05 01:38:11;;;;;;;1.67;1.33;;;23.40;56.60;;;;;;6266005;23;20376;-84
2021/10/05 01:40:37;;;;;;;1.13;1.00;;;23.40;56.60;;;;;;6265779;23;20158;-83
2021/10/05 01:43:02;;;;;;;1.30;1.00;;;23.40;56.50;;;;;;6239080;23;20153;-84
2021/10/05 01:45:31;;;;;;;1.30;1.20;;;23.40;56.60;;;;;;6239731;23;20405;-83
2021/10/05 01:47:57;;;;;;;1.50;1.40;;;23.40;56.60;;;;;;6265620;23;20155;-83
2021/10/05 01:50:23;;;;;;;1.30;1.17;;;23.40;56.60;;;;;;6239523;23;20489;-83
2021/10/05 01:52:49;;;;;;;1.10;1.00;;;23.40;56.60;;;;;;6238897;23;20692;-84
2021/10/05 01:55:16;;;;;;;1.40;1.20;;;23.40;56.60;;;;;;6238627;23;20182;-83
2021/10/05 01:57:42;;;;;;;1.87;1.67;;;23.40;56.60;;;;;;6239148;23;20392;-84
2021/10/05 02:00:09;;;;;;;1.33;0.93;;;23.40;56.60;;;;;;6239089;23;20373;-83
2021/10/05 02:02:34;;;;;;;1.73;0.90;;;23.40;56.60;;;;;;6238800;23;20381;-83
2021/10/05 02:05:01;;;;;;;1.20;0.90;;;23.40;56.60;;;;;;6264969;23;20768;-83
2021/10/05 02:07:27;;;;;;;1.77;1.30;;;23.40;56.50;;;;;;6239002;23;20151;-83
2021/10/05 02:09:56;;;;;;;1.70;1.20;;;23.40;56.60;;;;;;6264856;23;20379;-83
2021/10/05 02:12:26;;;;;;;1.37;1.00;;;23.40;56.60;;;;;;6265544;23;20423;-83
2021/10/05 02:14:53;;;;;;;1.50;1.20;;;23.40;56.60;;;;;;6239003;23;20494;-84
2021/10/05 02:17:20;;;;;;;1.60;1.20;;;23.40;56.60;;;;;;6237615;23;20381;-83
2021/10/05 02:19:46;;;;;;;1.40;1.10;;;23.40;56.60;;;;;;6238035;23;20374;-83
2021/10/05 02:22:12;;;;;;;1.33;1.23;;;23.40;56.60;;;;;;6237796;23;20392;-83
2021/10/05 02:24:44;;;;;;;1.60;1.27;;;23.40;56.60;;;;;;6240180;23;20170;-84
2021/10/05 02:27:19;;;;;;;1.33;1.23;;;23.40;56.60;;;;;;6240666;23;20173;-83
2021/10/05 02:29:47;;;;;;;1.23;1.03;;;23.40;56.60;;;;;;6262349;23;20448;-83
2021/10/05 02:32:27;;;;;;;;;;;;;;;;;;;;;
2021/10/05 02:38:15;;;;;;;1.23;1.07;;;23.40;56.60;;;;;;6174132;23;20384;-83
2021/10/05 02:40:41;;;;;;;1.50;1.30;;;23.30;56.60;;;;;;6174476;23;20392;-83
2021/10/05 02:43:10;;;;;;;1.60;1.13;;;23.30;56.60;;;;;;6173669;23;20368;-83
2021/10/05 02:45:44;;;;;;;1.37;1.23;;;23.30;56.60;;;;;;6150584;23;20296;-83
2021/10/05 02:48:13;;;;;;;1.50;0.90;;;23.30;56.60;;;;;;6149673;23;20391;-83
2021/10/05 02:50:39;;;;;;;2.10;1.90;;;23.30;56.60;;;;;;6174881;23;20376;-83
2021/10/05 02:53:05;;;;;;;1.40;1.30;;;23.30;56.60;;;;;;6174110;23;20499;-83
2021/10/05 02:55:31;;;;;;;2.60;1.17;;;23.30;56.60;;;;;;6150012;23;20261;-83
2021/10/05 02:57:57;;;;;;;1.17;1.00;;;23.30;56.60;;;;;;6149112;23;20160;-83
2021/10/05 03:00:25;;;;;;;1.30;1.00;;;23.30;56.60;;;;;;6150031;23;20407;-83
2021/10/05 03:02:51;;;;;;;1.40;1.00;;;23.30;56.50;;;;;;6175351;23;20387;-83
2021/10/05 03:05:19;;;;;;;1.83;1.10;;;23.30;56.50;;;;;;6149320;23;20384;-83
2021/10/05 03:07:45;;;;;;;1.50;1.03;;;23.40;56.60;;;;;;6173920;23;20378;-83
2021/10/05 03:10:11;;;;;;;1.43;1.20;;;23.30;56.50;;;;;;6147545;23;20819;-83
2021/10/05 03:12:38;;;;;;;1.40;1.13;;;23.30;56.50;;;;;;6149916;23;20164;-84
2021/10/05 03:15:04;;;;;;;1.63;1.30;;;23.30;56.50;;;;;;6148733;23;20454;-83
2021/10/05 03:17:30;;;;;;;1.13;0.97;;;23.30;56.50;;;;;;6174115;23;20380;-83
2021/10/05 03:19:58;;;;;;;1.57;1.03;;;23.30;56.50;;;;;;6173138;23;20440;-83
2021/10/05 03:22:24;;;;;;;2.33;1.30;;;23.30;56.50;;;;;;6150174;23;20164;-83
2021/10/05 03:24:50;;;;;;;1.60;1.10;;;23.30;56.60;;;;;;6207062;23;20393;-83
2021/10/05 03:27:20;;;;;;;1.20;1.10;;;23.30;56.60;;;;;;6266524;23;20155;-84
2021/10/05 03:29:47;;;;;;;1.67;1.13;;;23.30;56.50;;;;;;6239966;23;20373;-83
2021/10/05 03:32:13;;;;;;;1.43;1.17;;;23.30;56.50;;;;;;6240612;23;20385;-83
2021/10/05 03:34:38;;;;;;;1.50;1.23;;;23.30;56.50;;;;;;6239508;23;20946;-83
2021/10/05 03:37:04;;;;;;;1.30;1.20;;;23.30;56.50;;;;;;6240485;23;20154;-83
2021/10/05 03:39:30;;;;;;;1.20;1.07;;;23.30;56.50;;;;;;6240228;23;20147;-83
2021/10/05 03:41:56;;;;;;;2.57;1.20;;;23.30;56.50;;;;;;6239743;23;20392;-83
2021/10/05 03:44:22;;;;;;;1.50;1.30;;;23.30;56.50;;;;;;6239656;23;20154;-83
2021/10/05 03:46:48;;;;;;;1.40;1.20;;;23.30;56.50;;;;;;6241393;23;20190;-83
2021/10/05 03:49:13;;;;;;;1.30;1.00;;;23.30;56.50;;;;;;6268625;23;20166;-83
2021/10/05 03:51:39;;;;;;;1.87;1.40;;;23.30;56.50;;;;;;6268854;23;20157;-83
2021/10/05 03:54:08;;;;;;;1.20;1.10;;;23.30;56.50;;;;;;6242390;23;20182;-83
2021/10/05 03:56:34;;;;;;;1.17;0.90;;;23.30;56.50;;;;;;6268696;23;20146;-83
2021/10/05 03:58:59;;;;;;;1.43;1.33;;;23.30;56.50;;;;;;6242065;23;20386;-82
2021/10/05 04:01:25;;;;;;;1.50;0.83;;;23.30;57.10;;;;;;6241814;23;20157;-83
2021/10/05 04:03:51;;;;;;;1.47;1.10;;;23.30;56.50;;;;;;6241705;23;20158;-83
2021/10/05 04:06:16;;;;;;;1.57;1.10;;;23.30;56.50;;;;;;6267630;23;20178;-83
2021/10/05 04:08:42;;;;;;;1.37;0.97;;;23.30;56.50;;;;;;6241176;23;20218;-83
2021/10/05 04:11:08;;;;;;;1.30;1.20;;;23.20;56.50;;;;;;6267900;23;20459;-83
2021/10/05 04:13:34;;;;;;;1.60;1.20;;;23.20;56.40;;;;;;6241373;23;20186;-83
2021/10/05 04:16:00;;;;;;;1.60;1.10;;;23.20;56.40;;;;;;6268274;23;20368;-83
2021/10/05 04:18:29;;;;;;;1.30;0.93;;;23.30;56.60;;;;;;6242453;23;20143;-83
2021/10/05 04:20:55;;;;;;;1.23;1.13;;;23.30;56.60;;;;;;6241622;23;20177;-82
2021/10/05 04:23:21;;;;;;;1.63;1.03;;;23.30;56.60;;;;;;6268263;23;20397;-83
2021/10/05 04:25:46;;;;;;;1.63;1.13;;;23.20;56.50;;;;;;6240553;23;20214;-83
2021/10/05 04:28:12;;;;;;;1.43;1.33;;;23.20;56.50;;;;;;6241507;23;20150;-83
2021/10/05 04:30:38;;;;;;;1.30;1.17;;;23.20;56.50;;;;;;6241000;23;20237;-83
2021/10/05 04:33:04;;;;;;;1.40;1.13;;;23.30;56.60;;;;;;6241033;23;20165;-83
2021/10/05 04:35:30;;;;;;;1.67;1.30;;;23.30;56.60;;;;;;6267639;23;20408;-83
2021/10/05 04:37:58;;;;;;;1.10;1.00;;;23.30;56.60;;;;;;6241441;23;20234;-83
2021/10/05 04:40:25;;;;;;;1.43;1.20;;;23.30;56.60;;;;;;6267055;23;20391;-84
2021/10/05 04:42:52;;;;;;;1.10;0.80;;;23.30;56.60;;;;;;6241257;23;20382;-83
2021/10/05 04:45:18;;;;;;;1.30;1.20;;;23.30;56.60;;;;;;6267084;23;20441;-83
2021/10/05 04:47:47;;;;;;;1.40;1.13;;;23.30;56.60;;;;;;6215956;23;20408;-83
2021/10/05 04:50:14;;;;;;;1.30;1.00;;;23.30;56.60;;;;;;6241016;23;20405;-83
2021/10/05 04:52:44;;;;;;;1.20;1.00;;;23.30;56.60;;;;;;6239773;23;20389;-83
2021/10/05 04:55:10;;;;;;;1.47;1.00;;;23.30;56.60;;;;;;6240803;23;20421;-83
2021/10/05 04:57:39;;;;;;;1.40;1.20;;;23.30;56.60;;;;;;6240738;23;20403;-83
2021/10/05 05:00:06;;;;;;;1.63;1.10;;;23.30;56.70;;;;;;6240997;23;20173;-83
2021/10/05 05:02:32;;;;;;;1.10;1.00;;;23.30;56.60;;;;;;6240245;23;20401;-83
2021/10/05 05:05:01;;;;;;;1.50;1.17;;;23.30;56.60;;;;;;6240094;23;20385;-83
2021/10/05 05:07:27;;;;;;;1.50;1.13;;;23.30;56.60;;;;;;6240450;23;20381;-83
2021/10/05 05:09:52;;;;;;;1.10;0.80;;;23.30;56.60;;;;;;6267043;23;20448;-83
2021/10/05 05:12:18;;;;;;;1.33;1.10;;;23.30;56.60;;;;;;6267269;23;20147;-83
2021/10/05 05:14:47;;;;;;;1.40;1.10;;;23.30;56.60;;;;;;6266676;23;20181;-82
2021/10/05 05:17:12;;;;;;;1.27;1.03;;;23.30;56.60;;;;;;6266664;23;20139;-83
2021/10/05 05:19:38;;;;;;;1.17;0.90;;;23.30;56.60;;;;;;6240697;23;20385;-82
2021/10/05 05:22:04;;;;;;;1.27;1.03;;;23.30;56.60;;;;;;6240477;23;20158;-83
2021/10/05 05:24:32;;;;;;;1.10;0.90;;;23.30;56.60;;;;;;6267161;23;20212;-82
2021/10/05 05:26:58;;;;;;;1.30;0.90;;;23.30;56.50;;;;;;6240641;23;20154;-82
2021/10/05 05:35:40;;;;;;;1.30;1.10;;;23.40;56.60;;;;;;6266809;23;20463;-82
2021/10/05 05:38:05;;;;;;;1.10;0.90;;;23.30;56.60;;;;;;6239201;23;20390;-82
2021/10/05 05:41:09;;;;;;;1.50;1.00;;;23.30;56.60;;;;;;6202895;23;20164;-83
2021/10/05 05:43:35;;;;;;;1.30;1.00;;;23.40;56.60;;;;;;6210161;23;20154;-84
2021/10/05 05:46:01;;;;;;;1.20;1.10;;;23.30;56.60;;;;;;6239020;23;20381;-83
2021/10/05 05:48:27;;;;;;;2.20;1.20;;;23.30;56.60;;;;;;6266392;23;20361;-83
2021/10/05 05:53:47;;;;;;;1.20;1.10;;;23.30;56.60;;;;;;6253169;23;20419;-84
2021/10/05 05:56:16;;;;;;;1.17;0.90;;;23.30;56.60;;;;;;6239770;23;20408;-83
2021/10/05 05:58:52;;;;;;;1.60;1.10;;;23.30;56.60;;;;;;6239059;23;20388;-83
2021/10/05 06:01:21;;;;;;;1.30;0.90;;;23.30;56.60;;;;;;6239187;23;20445;-83
2021/10/05 06:03:50;;;;;;;1.10;0.90;;;23.40;56.60;;;;;;6239671;23;20384;-83
2021/10/05 06:06:17;;;;;;;1.33;0.90;;;23.30;56.50;;;;;;6266335;23;20385;-83
2021/10/05 06:08:51;;;;;;;1.30;1.00;;;23.30;56.50;;;;;;6239672;23;20388;-83
2021/10/05 06:11:28;;;;;;;;;;;;;;;;;;;;;
2021/10/05 06:13:54;;;;;;;1.13;0.90;;;23.40;56.60;;;;;;6265860;23;20420;-83
2021/10/05 06:16:28;;;;;;;1.47;1.30;;;23.40;56.60;;;;;;6240547;23;20381;-83
2021/10/05 06:19:17;;;;;;;1.30;1.10;;;23.40;56.60;;;;;;6238816;23;20146;-82
2021/10/05 06:21:43;;;;;;;1.00;0.90;;;23.40;56.60;;;;;;6218087;23;20869;-83
2021/10/05 06:24:27;;;;;;;1.30;1.17;;;23.30;56.50;;;;;;6240087;23;20487;-82
2021/10/05 06:26:58;;;;;;;1.67;1.20;;;23.40;56.60;;;;;;6239308;23;20385;-83
2021/10/05 06:29:37;;;;;;;1.53;1.30;;;23.40;56.70;;;;;;6239330;23;20370;-83
2021/10/05 06:32:04;;;;;;;1.10;1.00;;;23.40;56.60;;;;;;6240413;23;20446;-84
2021/10/05 06:34:42;;;;;;;1.30;1.00;;;23.40;56.60;;;;;;6238865;23;20420;-86
2021/10/05 06:37:12;;;;;;;1.53;1.10;;;23.40;56.60;;;;;;6238384;23;20741;-86
2021/10/05 06:39:39;;;;;;;1.40;1.00;;;23.40;56.60;;;;;;6238622;23;20370;-86
2021/10/05 06:42:09;;;;;;;1.20;0.83;;;23.40;56.60;;;;;;6238978;23;20392;-86
2021/10/05 06:44:39;;;;;;;1.60;1.20;;;23.40;56.60;;;;;;6238447;23;20408;-85
2021/10/05 06:47:05;;;;;;;1.60;1.00;;;23.40;56.60;;;;;;6238529;23;20456;-86
2021/10/05 06:49:39;;;;;;;1.27;1.03;;;23.40;56.60;;;;;;6265922;23;20392;-86
2021/10/05 06:52:11;;;;;;;1.13;0.90;;;23.40;56.60;;;;;;6238966;23;20405;-85
2021/10/05 06:54:54;;;;;;;;;;;;;;;;;;;;;
2021/10/05 06:57:40;;;;;;;1.77;1.13;;;23.40;56.50;;;;;;6265631;23;20417;-85
2021/10/05 07:00:21;;;;;;;1.70;1.40;;;23.40;56.60;;;;;;6239396;23;20369;-86
2021/10/05 07:02:50;;;;;;;1.67;1.10;;;23.40;56.60;;;;;;6241116;23;20452;-87
2021/10/05 07:05:23;;;;;;;3.50;1.20;;;23.40;56.60;;;;;;6238548;23;20381;-86
2021/10/05 07:08:08;;;;;;;1.67;1.10;;;23.40;56.60;;;;;;6238337;23;20464;-86
2021/10/05 07:10:36;;;;;;;2.17;1.23;;;23.40;56.60;;;;;;6234958;23;20384;-85
2021/10/05 07:13:05;;;;;;;2.80;1.63;;;23.40;56.60;;;;;;6240064;23;20911;-85
2021/10/05 07:15:40;;;;;;;1.87;1.43;;;23.40;56.60;;;;;;6266299;23;20420;-85
2021/10/05 07:28:19;;;;;;;2.23;1.40;;;23.40;56.60;;;;;;6116286;23;20469;-85
2021/10/05 07:30:46;;;;;;;3.47;2.03;;;23.30;56.60;;;;;;6091815;23;20386;-86
2021/10/05 07:33:30;;;;;;;4.20;1.30;;;23.30;56.60;;;;;;6115608;23;20158;-86
2021/10/05 07:36:00;;;;;;;3.87;1.70;;;23.40;56.60;;;;;;6115680;23;20421;-85
2021/10/05 07:38:27;;;;;;;6.30;2.37;;;23.30;56.60;;;;;;6115590;23;20802;-86
2021/10/05 07:40:53;;;;;;;4.30;1.80;;;23.30;56.60;;;;;;6115023;23;20380;-85
2021/10/05 07:43:19;;;;;;;6.03;2.10;;;23.30;56.50;;;;;;6090859;23;20373;-86
2021/10/05 07:45:49;;;;;;;3.20;2.03;;;23.40;56.60;;;;;;6114879;23;20168;-86
2021/10/05 07:48:21;;;;;;;4.03;1.83;;;23.40;56.60;;;;;;6116197;23;20201;-86
2021/10/05 07:50:49;;;;;;;2.53;1.90;;;23.40;56.60;;;;;;6115421;23;20401;-85
2021/10/05 07:53:22;;;;;;;2.37;1.30;;;23.40;56.60;;;;;;6116738;23;20378;-84
2021/10/05 07:55:52;;;;;;;3.17;1.80;;;23.40;57.10;;;;;;6092448;23;20429;-86
2021/10/05 08:01:48;;;;;;;4.93;2.40;;;23.40;56.50;;;;;;6147257;23;20400;-86
2021/10/05 08:04:22;;;;;;;3.67;1.90;;;23.40;56.50;;;;;;6240984;23;20366;-86
2021/10/05 08:07:11;;;;;;;;;;;;;;;;;;;;;
2021/10/05 08:09:56;;;;;;;4.43;1.90;;;23.40;56.60;;;;;;6266769;23;20376;-83
2021/10/05 08:12:31;;;;;;;3.17;2.07;;;23.40;56.60;;;;;;6267219;23;20365;-84
2021/10/05 08:14:57;;;;;;;6.57;2.27;;;23.40;56.60;;;;;;6238912;23;20446;-83
2021/10/05 08:17:38;;;;;;;;;;;;;;;;;;;;;
2021/10/05 08:20:18;;;;;;;5.77;2.17;;;23.40;56.60;;;;;;6267432;23;20334;-82
2021/10/05 08:22:47;;;;;;;5.30;2.20;;;23.50;56.60;;;;;;6267350;23;20373;-83
2021/10/05 08:25:18;;;;;;;8.30;3.10;;;23.50;56.60;;;;;;6241479;23;20380;-83
2021/10/05 08:28:03;;;;;;;4.10;2.13;;;23.50;56.60;;;;;;6266986;23;20413;-83
2021/10/05 08:30:49;;;;;;;6.13;2.43;;;23.50;56.60;;;;;;6239792;23;20397;-83
2021/10/05 08:33:37;;;;;;;;;;;;;;;;;;;;;
2021/10/05 08:36:15;;;;;;;5.13;2.57;;;23.50;56.60;;;;;;6266620;23;20377;-82
2021/10/05 08:38:57;;;;;;;6.10;2.30;;;23.50;56.60;;;;;;6240450;23;20353;-82
2021/10/05 08:41:52;;;;;;;6.43;2.30;;;23.60;56.70;;;;;;6239978;23;20369;-83
2021/10/05 08:44:26;;;;;;;4.17;2.27;;;23.60;56.70;;;;;;6261805;23;20373;-82
2021/10/05 08:46:54;;;;;;;6.70;2.90;;;23.50;56.60;;;;;;6236784;23;20369;-82
2021/10/05 08:56:19;;;;;;;3.50;1.90;;;23.60;56.60;;;;;;6086761;23;20640;-82
2021/10/05 08:59:11;;;;;;;8.10;2.73;;;23.50;56.60;;;;;;6083396;23;20423;-82
2021/10/05 09:02:11;;;;;;;7.20;2.20;;;23.50;56.60;;;;;;6064444;23;20387;-83
2021/10/05 09:04:45;;;;;;;2.10;1.73;;;23.50;56.60;;;;;;6049169;23;20387;-82
2021/10/05 09:14:23;;;;;;;3.33;1.80;;;23.50;56.60;;;;;;6085560;23;20379;-83
2021/10/05 09:17:08;;;;;;;3.50;1.90;;;23.50;56.60;;;;;;6080262;23;20390;-83
2021/10/05 09:19:40;;;;;;;2.90;1.43;;;23.50;56.60;;;;;;6062370;23;20382;-82
2021/10/05 09:22:32;;;;;;;;;;;;;;;;;;;;;
2021/10/05 09:28:33;;;;;;;4.43;1.90;;;23.60;56.70;;;;;;6107389;23;20363;-84
2021/10/05 09:31:28;;;;;;;4.67;2.03;;;23.60;56.70;;;;;;6240562;23;20353;-84
2021/10/05 09:37:27;;;;;;;5.37;2.00;;;23.60;56.70;;;;;;6266085;23;20420;-83
2021/10/05 09:40:05;;;;;;;3.27;1.73;;;23.60;56.80;;;;;;6239497;23;20393;-83
2021/10/05 09:49:11;;;;;;;2.13;1.60;;;23.60;56.70;;;;;;6266588;23;20709;-83
2021/10/05 09:52:13;;;;;;;2.27;1.70;;;23.60;56.80;;;;;;6239844;23;20387;-84
2021/10/05 09:54:45;;;;;;;5.50;1.30;;;23.60;56.70;;;;;;6215732;23;20451;-84
2021/10/05 09:57:19;;;;;;;3.23;1.90;;;23.60;56.80;;;;;;6239575;23;20384;-83
2021/10/05 09:59:50;;;;;;;3.77;1.87;;;23.60;56.80;;;;;;6238135;23;20380;-84
2021/10/05 10:02:26;;;;;;;2.20;1.60;;;23.60;56.80;;;;;;6238317;23;20430;-84
2021/10/05 10:05:04;;;;;;;4.20;1.80;;;23.60;56.70;;;;;;6238452;23;20377;-84
2021/10/05 10:07:55;;;;;;;4.17;1.90;;;23.60;56.70;;;;;;6239332;23;20380;-84
2021/10/05 10:10:31;;;;;;;4.90;1.70;;;23.70;56.70;;;;;;6222398;23;20440;-84
2021/10/05 10:13:20;;;;;;;2.73;1.67;;;23.60;56.70;;;;;;6238451;23;20381;-84
2021/10/05 10:15:58;;;;;;;2.07;1.40;;;23.70;56.70;;;;;;6264922;23;20417;-84
2021/10/05 10:18:25;;;;;;;2.00;1.37;;;23.70;56.80;;;;;;6238948;23;20373;-84
2021/10/05 10:21:14;;;;;;;3.57;1.63;;;23.70;56.70;;;;;;6238504;23;20452;-84
2021/10/05 10:24:13;;;;;;;;;;;;;;;;;;;;;
2021/10/05 10:26:51;;;;;;;2.17;1.63;;;23.70;56.70;;;;;;6262214;23;20380;-85
2021/10/05 10:29:35;;;;;;;2.43;1.63;;;23.70;56.90;;;;;;6232768;23;20373;-85
2021/10/05 10:39:43;;;;;;;3.20;1.50;;;23.70;56.70;;;;;;6018141;23;20390;-85
2021/10/05 10:42:45;;;;;;;;;;;;;;;;;;;;;
2021/10/05 10:45:14;;;;;;;6.63;1.80;;;23.70;56.70;;;;;;6083005;23;20455;-85
2021/10/05 10:51:24;;;;;;;;;;;;;;;;;;;;;
2021/10/05 10:58:24;;;;;;;10.30;7.53;;;23.80;56.70;;;;;;6052342;23;20392;-85
2021/10/05 11:01:11;;;;;;;17.90;9.73;;;23.80;56.70;;;;;;6029411;23;20412;-85
2021/10/05 11:03:57;;;;;;;25.07;15.33;;;23.70;56.60;;;;;;6142707;23;20371;-84
2021/10/05 11:13:23;;;;;;;41.20;30.27;;;23.80;56.70;;;;;;6093424;23;20440;-85
2021/10/05 11:19:47;;;;;;;55.50;37.30;;;23.80;56.70;;;;;;6078415;23;20383;-86
2021/10/05 11:26:07;;;;;;;53.63;38.90;;;23.80;56.70;;;;;;6046020;23;20407;-85
2021/10/05 12:11:37;;;;;;;49.63;36.47;;;23.70;56.80;;;;;;5834246;24;20484;-85
2021/10/05 12:25:31;;;;;;;;;;;;;;;;;;;;;
2021/10/05 12:42:52;;;;;;;44.63;30.37;;;23.70;56.90;;;;;;5863146;24;20397;-85
2021/10/05 12:51:53;;;;;;;42.50;28.30;;;23.70;56.90;;;;;;5783343;24;20368;-87
2021/10/05 13:01:49;;;;;;;39.50;27.70;;;23.70;56.80;;;;;;5810095;24;20359;-85
2021/10/05 13:15:16;;;;;;;37.77;25.83;;;23.70;56.90;;;;;;5768918;24;20503;-84
2021/10/05 13:18:27;;;;;;;34.57;24.53;;;23.70;56.90;;;;;;5758910;24;20409;-84
2021/10/05 13:21:27;;;;;;;36.50;24.07;;;23.70;56.90;;;;;;5811979;24;20411;-85
2021/10/05 13:24:54;;;;;;;27.93;21.87;;;23.70;56.80;;;;;;5813691;24;20386;-85
2021/10/05 13:35:11;;;;;;;25.47;18.43;;;23.70;56.80;;;;;;5891964;24;20785;-84
2021/10/05 13:47:54;;;;;;;24.97;17.20;;;23.70;56.80;;;;;;5843663;24;20443;-84
2021/10/05 13:50:29;;;;;;;23.83;17.47;;;23.70;56.80;;;;;;5841183;24;20386;-84
2021/10/05 13:56:32;;;;;;;;;;;;;;;;;;;;;
2021/10/05 13:59:11;;;;;;;24.70;16.10;;;23.80;56.80;;;;;;5864031;24;20366;-84
2021/10/05 14:01:56;;;;;;;26.10;15.37;;;23.70;56.70;;;;;;5864902;24;20424;-85
2021/10/05 14:04:27;;;;;;;22.67;15.30;;;23.70;56.70;;;;;;5864101;24;20398;-83
2021/10/05 14:06:56;;;;;;;26.60;16.63;;;23.70;56.70;;;;;;5864600;24;20382;-83
2021/10/05 14:09:28;;;;;;;21.83;14.80;;;23.70;56.70;;;;;;5943911;24;20372;-84
2021/10/05 14:11:55;;;;;;;22.00;15.50;;;23.70;57.20;;;;;;6034807;23;20901;-84
2021/10/05 14:17:36;;;;;;;20.90;14.33;;;23.70;56.60;;;;;;6266178;23;20364;-84
2021/10/05 14:20:10;;;;;;;20.90;12.93;;;23.80;56.70;;;;;;6239621;23;20373;-84
2021/10/05 14:22:37;;;;;;;18.83;13.37;;;23.80;56.70;;;;;;6240089;23;20392;-83
2021/10/05 14:28:15;;;;;;;16.00;11.93;;;23.80;56.70;;;;;;6248214;23;20439;-84
2021/10/05 14:30:44;;;;;;;21.47;12.90;;;23.70;56.60;;;;;;6215996;23;20399;-82
2021/10/05 14:39:58;;;;;;;18.47;12.10;;;23.80;56.70;;;;;;6115432;23;21144;-84
2021/10/05 14:42:30;;;;;;;17.87;10.70;;;23.80;56.70;;;;;;6116194;23;20350;-84
2021/10/05 14:48:13;;;;;;;22.13;11.37;;;23.80;56.70;;;;;;6096487;23;20461;-82
2021/10/05 14:50:54;;;;;;;15.53;10.63;;;23.80;56.70;;;;;;6115613;23;20410;-83
2021/10/05 14:53:32;;;;;;;16.57;11.47;;;23.90;56.70;;;;;;6115728;23;20428;-84
2021/10/05 14:56:01;;;;;;;20.50;11.47;;;23.90;56.80;;;;;;6116200;23;20601;-83
2021/10/05 14:58:38;;;;;;;20.03;10.77;;;23.90;56.80;;;;;;6116558;23;20369;-81
2021/10/05 15:01:18;;;;;;;17.43;11.17;;;24.00;56.80;;;;;;6090180;23;20397;-83
2021/10/05 15:10:26;;;;;;;15.30;9.87;;;24.00;56.70;;;;;;6115418;23;20345;-82
2021/10/05 15:12:53;;;;;;;17.77;9.17;;;24.00;56.70;;;;;;6156675;23;20729;-83
2021/10/05 15:15:45;;;;;;;13.70;10.07;;;24.00;56.70;;;;;;6239215;23;20425;-83
2021/10/05 15:18:35;;;;;;;14.10;9.03;;;24.00;56.70;;;;;;6215985;23;20389;-83
2021/10/05 15:21:05;;;;;;;14.17;9.43;;;24.00;56.70;;;;;;6229138;23;20392;-82
2021/10/05 15:23:42;;;;;;;14.23;9.60;;;24.00;56.70;;;;;;6216427;23;20437;-82
2021/10/05 15:26:17;;;;;;;14.90;9.13;;;24.10;56.80;;;;;;6239895;23;20369;-84
2021/10/05 15:28:48;;;;;;;12.63;8.70;;;24.10;56.70;;;;;;6265428;23;20364;-85
2021/10/05 15:31:51;;;;;;;;;;;;;;;;;;;;;
2021/10/05 15:42:31;;;;;;;;;;;;;;;;;;;;;
2021/10/05 15:58:14;;;;;;;;;;;;;;;;;;;;;
2021/10/05 16:01:02;;;;;;;12.83;8.80;;;24.10;56.80;;;;;;6140676;23;20420;-84
2021/10/05 16:03:54;;;;;;;10.53;8.00;;;24.20;56.80;;;;;;6140606;23;20432;-84
2021/10/05 16:06:20;;;;;;;12.43;8.43;;;24.20;56.80;;;;;;6115329;23;20396;-84
2021/10/05 16:08:53;;;;;;;10.30;7.57;;;24.20;56.80;;;;;;6141583;23;20396;-84
2021/10/05 16:18:23;;;;;;;10.80;7.03;;;24.20;56.70;;;;;;5997957;24;20404;-84
2021/10/05 16:20:49;;;;;;;11.17;7.87;;;24.10;56.70;;;;;;5998589;24;20402;-84
2021/10/05 16:26:39;;;;;;;12.87;7.30;;;24.20;56.70;;;;;;5996859;24;20447;-84
2021/10/05 16:29:09;;;;;;;9.43;6.90;;;24.20;56.70;;;;;;5997308;24;20374;-84
2021/10/05 16:31:35;;;;;;;8.47;6.40;;;24.20;56.80;;;;;;6015886;23;20377;-84
2021/10/05 16:34:02;;;;;;;10.57;6.90;;;24.20;56.70;;;;;;6025624;23;20536;-84
2021/10/05 16:36:28;;;;;;;8.50;6.60;;;24.20;56.70;;;;;;6025230;23;20910;-84
2021/10/05 16:39:00;;;;;;;8.80;6.37;;;24.20;56.60;;;;;;6026463;23;20392;-84
2021/10/05 16:44:55;;;;;;;6.73;5.77;;;24.30;56.70;;;;;;6025154;23;20364;-84
2021/10/05 16:47:30;;;;;;;9.17;6.53;;;24.30;56.70;;;;;;6034593;23;20430;-84
2021/10/05 16:50:05;;;;;;;8.50;6.43;;;24.30;56.70;;;;;;6110695;23;20385;-84
2021/10/05 16:52:31;;;;;;;8.30;6.27;;;24.30;56.70;;;;;;6111730;23;20409;-84
2021/10/05 16:54:57;;;;;;;8.03;6.30;;;24.30;56.70;;;;;;6212230;23;20909;-84
2021/10/05 16:57:28;;;;;;;10.60;6.80;;;24.30;56.70;;;;;;6263092;23;20143;-84
2021/10/05 17:00:05;;;;;;;8.20;5.90;;;24.30;56.60;;;;;;6236072;23;20381;-84
2021/10/05 17:02:33;;;;;;;9.83;7.00;;;24.30;56.60;;;;;;6262974;23;20357;-84
2021/10/05 17:05:13;;;;;;;8.60;6.23;;;24.30;56.60;;;;;;6234930;23;20393;-84
2021/10/05 17:07:45;;;;;;;8.47;6.33;;;24.30;56.60;;;;;;6236272;23;20376;-84
2021/10/05 17:10:16;;;;;;;7.30;5.70;;;24.40;56.70;;;;;;6263865;23;20365;-84
2021/10/05 17:12:46;;;;;;;9.37;6.70;;;24.40;56.60;;;;;;6210599;23;20391;-84
2021/10/05 17:15:12;;;;;;;8.60;5.40;;;24.40;56.60;;;;;;6235458;23;20425;-84
2021/10/05 17:24:35;;;;;;;6.70;5.17;;;24.40;56.60;;;;;;6112356;23;20486;-84
2021/10/05 17:34:01;;;;;;;7.63;5.90;;;24.30;56.60;;;;;;6089692;23;20380;-84
2021/10/05 17:36:28;;;;;;;8.30;6.00;;;24.30;56.70;;;;;;6086218;23;20374;-84
2021/10/05 17:38:57;;;;;;;7.43;5.87;;;24.30;56.70;;;;;;6110888;23;20381;-84
2021/10/05 17:41:23;;;;;;;6.70;5.40;;;24.40;56.70;;;;;;6111162;23;20389;-84
2021/10/05 17:43:53;;;;;;;6.67;5.53;;;24.40;56.70;;;;;;6111240;23;20374;-84
2021/10/05 17:46:24;;;;;;;8.10;6.00;;;24.40;56.70;;;;;;6111402;23;20374;-83
2021/10/05 17:48:50;;;;;;;5.93;5.30;;;24.40;56.60;;;;;;6112290;23;20366;-84
2021/10/05 17:51:17;;;;;;;7.70;5.60;;;24.40;56.60;;;;;;6111485;23;20406;-84
2021/10/05 17:57:07;;;;;;;5.63;4.57;;;24.40;56.60;;;;;;6242765;23;20420;-84
2021/10/05 17:59:37;;;;;;;6.43;4.97;;;24.40;56.70;;;;;;6237347;23;20380;-84